Aérodrome :
LOGIN :

S'inscrire | Disclaimer

   EN    FR    IT 

 










Légende :    VFR   VFR Marginal   IFR   IFR Intensif   IFR Très Intensif
Visi : 
Plafond : 
>= 8 km
>= 3000ft
5 à 8 km
1000 à 3000 ft
1500m à 5 km
500 à 1000 ft
800 à 1500m
200 à 500 ft
< 800m
< 200 ft
Symboles :   Orages  Brouillard  Fortes neiges  Fortes précipitations  Vent > 20 kt
SIGMETs :   Divers  Orages  Givrage  Turbulence  Onde Orograph.  Cendres Volcan.






- Altitude de l'aérodrome : 74 ft
- Code IATA : MRS


LFML - Marseille / Marignane

DERNIER METAR :
  • 032100Z AUTO 13006KT CAVOK 08/05 Q1029 NOSIG

METARs EXPIRÉS :
  • 032030Z AUTO 13006KT CAVOK 08/06 Q1029 NOSIG
  • 032000Z AUTO 14006KT CAVOK 08/06 Q1029 NOSIG
  • 031930Z AUTO 13004KT CAVOK 09/06 Q1029 NOSIG
  • 031900Z AUTO 15003KT CAVOK 10/06 Q1029 NOSIG
  • 031830Z AUTO 13002KT CAVOK 12/06 Q1029 NOSIG

TAF TAF LFML
Valide du 03 à 21h jusqu'au 05 à 03h UTC


032000Z 0321/0503 VRB03KT CAVOK TX15/0415Z TN07/0404Z
TEMPO 0400/0409 BKN012
PROB40
TEMPO 0400/0409 2500 BR
PROB30
TEMPO 0400/0408 0300 FG VV///
TEMPO 0418/0503 BKN012
PROB40
TEMPO 0419/0503 4000 BR BKN003
PROB30
TEMPO 0419/0503 0800 BCFG
ATIS : +33 4 42 31 15 15



MET'MAP, la Météo Aéronautique d'un coup d'oeil ! - Copyright ORBIFLY Décembre 2007 - Disclaimer

ORBIFLY MET'MAP TEAM :

Programmation & Développement : Alexandra Zaïnal
Sur une idée originale de : Baudouin d'Aumeries
Assistance à la programmation : Marc-Olivier Méhu
Soutien technique & logistique : Manuel Goepfert

Contact : metmap@orbifly.com




SOURCES & CREDITS :

   NOAA